createdAt,value
2024-01-20T00:02:25.904Z,-3.96
2024-01-20T00:04:52.824Z,-4.12
2024-01-20T00:07:20.910Z,-4.01
2024-01-20T00:09:51.298Z,-4.00
2024-01-20T00:12:19.498Z,-3.95
2024-01-20T00:14:46.365Z,-4.07
2024-01-20T00:17:21.276Z,-3.95
2024-01-20T00:19:54.294Z,-3.81
2024-01-20T00:22:22.538Z,-3.62
2024-01-20T00:24:50.356Z,-3.76
2024-01-20T00:27:17.274Z,-3.99
2024-01-20T00:29:44.839Z,-4.02
2024-01-20T00:32:11.719Z,-4.11
2024-01-20T00:34:46.290Z,-3.91
2024-01-20T00:37:22.725Z,-3.83
2024-01-20T00:39:49.413Z,-3.62
2024-01-20T00:42:16.073Z,-3.92
2024-01-20T00:44:42.772Z,-3.89
2024-01-20T00:47:09.561Z,-4.12
2024-01-20T00:49:36.401Z,-4.16
2024-01-20T00:52:03.118Z,-4.13
2024-01-20T00:54:29.785Z,-3.94
2024-01-20T00:56:56.450Z,-4.04
2024-01-20T00:59:23.182Z,-4.12
2024-01-20T01:01:50.124Z,-3.91
2024-01-20T01:04:16.743Z,-4.11
2024-01-20T01:06:43.420Z,-4.01
2024-01-20T01:09:09.999Z,-3.94
2024-01-20T01:11:36.589Z,-4.19
2024-01-20T01:14:03.414Z,-4.14
2024-01-20T01:16:30.067Z,-4.09
2024-01-20T01:18:56.652Z,-4.19
2024-01-20T01:21:23.359Z,-4.25
2024-01-20T01:23:50.057Z,-4.14
2024-01-20T01:26:17.796Z,-4.18
2024-01-20T01:28:44.474Z,-4.30
2024-01-20T01:31:11.343Z,-4.31
2024-01-20T01:33:38.058Z,-4.29
2024-01-20T01:36:05.166Z,-4.23
2024-01-20T01:38:31.974Z,-4.13
2024-01-20T01:40:59.043Z,-4.17
2024-01-20T01:43:25.673Z,-4.22
2024-01-20T01:45:52.346Z,-4.15
2024-01-20T01:48:19.026Z,-4.22
2024-01-20T01:50:45.737Z,-4.17
2024-01-20T01:53:12.944Z,-4.16
2024-01-20T01:55:40.939Z,-4.45
2024-01-20T01:58:07.752Z,-4.47
2024-01-20T02:00:34.383Z,-4.45
2024-01-20T02:03:01.094Z,-4.23
2024-01-20T02:05:28.130Z,-4.21
2024-01-20T02:07:56.109Z,-4.36
2024-01-20T02:10:22.705Z,-4.48
2024-01-20T02:12:50.304Z,-4.41
2024-01-20T02:15:18.597Z,-4.28
2024-01-20T02:17:52.913Z,-4.20
2024-01-20T02:20:20.315Z,-4.26
2024-01-20T02:22:46.973Z,-4.34
2024-01-20T02:25:13.560Z,-4.26
2024-01-20T02:27:40.173Z,-4.27
2024-01-20T02:30:08.151Z,-4.12
2024-01-20T02:32:35.296Z,-4.08
2024-01-20T02:35:02.017Z,-4.20
2024-01-20T02:37:28.645Z,-4.30
2024-01-20T02:39:55.496Z,-4.39
2024-01-20T02:42:23.656Z,-4.40
2024-01-20T02:44:50.352Z,-4.37
2024-01-20T02:47:18.064Z,-4.63
2024-01-20T02:49:44.866Z,-4.49
2024-01-20T02:52:11.653Z,-4.31
2024-01-20T02:54:38.505Z,-4.51
2024-01-20T02:57:05.426Z,-4.53
2024-01-20T02:59:32.123Z,-4.57
2024-01-20T03:01:58.852Z,-4.47
2024-01-20T03:04:25.555Z,-4.41
2024-01-20T03:06:52.239Z,-4.35
2024-01-20T03:09:18.947Z,-4.43
2024-01-20T03:11:45.688Z,-4.32
2024-01-20T03:14:12.730Z,-4.25
2024-01-20T03:16:39.825Z,-4.17
2024-01-20T03:19:07.794Z,-4.06
2024-01-20T03:21:34.466Z,-4.37
2024-01-20T03:24:01.246Z,-4.28
2024-01-20T03:26:28.115Z,-4.14
2024-01-20T03:28:54.739Z,-4.31
2024-01-20T03:31:24.457Z,-4.41
2024-01-20T03:33:51.127Z,-4.52
2024-01-20T03:36:17.791Z,-4.64
2024-01-20T03:38:44.444Z,-4.56
2024-01-20T03:41:11.060Z,-4.42
2024-01-20T03:43:37.649Z,-4.36
2024-01-20T03:46:04.505Z,-4.14
2024-01-20T03:48:31.402Z,-4.19
2024-01-20T03:50:58.144Z,-4.21
2024-01-20T03:53:24.790Z,-4.24
2024-01-20T03:55:51.521Z,-4.06
2024-01-20T03:58:18.254Z,-4.09
2024-01-20T04:00:45.005Z,-4.14
2024-01-20T04:03:12.084Z,-4.50
2024-01-20T04:05:38.787Z,-4.47
2024-01-20T04:08:05.430Z,-4.32
2024-01-20T04:10:32.145Z,-4.34
2024-01-20T04:12:58.702Z,-4.39
2024-01-20T04:15:25.350Z,-4.46
2024-01-20T04:17:52.134Z,-4.32
2024-01-20T04:20:18.986Z,-4.15
2024-01-20T04:22:45.572Z,-4.26
2024-01-20T04:25:13.602Z,-4.46
2024-01-20T04:27:40.324Z,-4.74
2024-01-20T04:30:14.816Z,-4.42
2024-01-20T04:32:41.491Z,-4.14
2024-01-20T04:35:08.382Z,-4.03
2024-01-20T04:37:35.584Z,-3.64
2024-01-20T04:40:02.276Z,-3.61
2024-01-20T04:42:29.020Z,-3.61
2024-01-20T04:44:55.870Z,-3.45
2024-01-20T04:47:22.673Z,-3.52
2024-01-20T04:49:49.329Z,-3.46
2024-01-20T04:52:18.585Z,-3.24
2024-01-20T04:54:45.207Z,-3.23
2024-01-20T04:57:11.870Z,-3.17
2024-01-20T04:59:38.592Z,-3.25
2024-01-20T05:02:05.228Z,-3.36
2024-01-20T05:04:31.830Z,-3.58
2024-01-20T05:06:58.625Z,-3.79
2024-01-20T05:09:25.498Z,-3.74
2024-01-20T05:11:52.188Z,-3.53
2024-01-20T05:14:18.896Z,-3.48
2024-01-20T05:16:45.607Z,-3.73
2024-01-20T05:19:12.400Z,-3.79
2024-01-20T05:21:39.285Z,-3.77
2024-01-20T05:24:06.456Z,-3.95
2024-01-20T05:26:33.814Z,-3.85
2024-01-20T05:29:00.579Z,-3.63
2024-01-20T05:31:27.303Z,-3.56
2024-01-20T05:33:54.020Z,-3.82
2024-01-20T05:36:20.772Z,-4.35
2024-01-20T05:38:47.382Z,-4.06
2024-01-20T05:41:14.287Z,-4.32
2024-01-20T05:43:41.120Z,-4.51
2024-01-20T05:46:07.935Z,-4.82
2024-01-20T05:48:36.187Z,-4.62
2024-01-20T05:51:03.046Z,-5.07
2024-01-20T05:53:29.715Z,-4.94
2024-01-20T05:55:56.433Z,-4.74
2024-01-20T05:58:23.149Z,-4.68
2024-01-20T06:00:49.964Z,-4.40
2024-01-20T06:03:16.783Z,-4.22
2024-01-20T06:05:43.540Z,-3.98
2024-01-20T06:08:10.386Z,-3.88
2024-01-20T06:10:37.053Z,-4.16
2024-01-20T06:13:03.756Z,-4.19
2024-01-20T06:15:30.478Z,-4.29
2024-01-20T06:17:57.212Z,-4.43
2024-01-20T06:20:23.877Z,-4.36
2024-01-20T06:22:50.530Z,-4.60
2024-01-20T06:25:17.180Z,-4.41
2024-01-20T06:27:43.825Z,-4.28
2024-01-20T06:30:11.537Z,-4.10
2024-01-20T06:32:38.242Z,-4.27
2024-01-20T06:35:05.205Z,-4.05
2024-01-20T06:37:31.825Z,-4.05
2024-01-20T06:39:58.470Z,-3.97
2024-01-20T06:42:25.135Z,-3.75
2024-01-20T06:44:51.748Z,-3.76
2024-01-20T06:47:18.536Z,-3.67
2024-01-20T06:49:45.305Z,-3.60
2024-01-20T06:52:12.022Z,-3.62
2024-01-20T06:54:38.821Z,-3.62
2024-01-20T06:57:05.734Z,-3.69
2024-01-20T06:59:32.463Z,-3.77
2024-01-20T07:01:59.108Z,-3.89
2024-01-20T07:04:25.852Z,-3.85
2024-01-20T07:06:52.637Z,-3.79
2024-01-20T07:09:19.367Z,-3.98
2024-01-20T07:11:46.064Z,-3.90
2024-01-20T07:14:12.848Z,-4.13
2024-01-20T07:16:39.471Z,-3.97
2024-01-20T07:19:06.223Z,-3.83
2024-01-20T07:21:33.081Z,-3.91
2024-01-20T07:23:59.720Z,-3.84
2024-01-20T07:26:26.440Z,-5.02
2024-01-20T07:28:53.176Z,-4.93
2024-01-20T07:31:19.881Z,-5.09
2024-01-20T07:33:46.553Z,-5.01
2024-01-20T07:36:13.193Z,-4.73
2024-01-20T07:38:39.785Z,-4.49
2024-01-20T07:41:08.238Z,-4.25
2024-01-20T07:43:34.863Z,-4.29
2024-01-20T07:46:01.538Z,-4.35
2024-01-20T07:48:28.327Z,-4.28
2024-01-20T07:50:55.373Z,-4.09
2024-01-20T07:53:22.087Z,-4.05
2024-01-20T07:55:48.722Z,-4.12
2024-01-20T07:58:15.307Z,-4.13
2024-01-20T08:00:42.240Z,-4.52
2024-01-20T08:03:09.042Z,-4.78
2024-01-20T08:05:36.004Z,-4.72
2024-01-20T08:08:02.744Z,-4.66
2024-01-20T08:10:29.447Z,-4.60
2024-01-20T08:12:56.459Z,-4.45
2024-01-20T08:15:23.085Z,-4.58
2024-01-20T08:17:50.391Z,-4.41
2024-01-20T08:20:17.010Z,-4.41
2024-01-20T08:22:43.748Z,-4.36
2024-01-20T08:25:10.451Z,-4.22
2024-01-20T08:27:37.073Z,-4.25
2024-01-20T08:30:04.193Z,-4.22
2024-01-20T08:32:30.951Z,-4.15
2024-01-20T08:34:57.659Z,-3.95
2024-01-20T08:37:24.280Z,-3.84
2024-01-20T08:39:53.265Z,-3.74
2024-01-20T08:42:19.876Z,-3.74
2024-01-20T08:44:46.551Z,-3.55
2024-01-20T08:47:13.160Z,-3.56
2024-01-20T08:49:39.793Z,-3.59
2024-01-20T08:52:06.558Z,-3.44
2024-01-20T08:54:33.327Z,-3.50
2024-01-20T08:57:00.172Z,-3.33
2024-01-20T08:59:26.843Z,-3.27
2024-01-20T09:01:53.648Z,-3.25
2024-01-20T09:04:20.346Z,-3.12
2024-01-20T09:06:47.118Z,-2.86
2024-01-20T09:09:14.001Z,-2.90
2024-01-20T09:11:40.796Z,-2.64
2024-01-20T09:14:07.641Z,-2.72
2024-01-20T09:16:34.331Z,-2.68
2024-01-20T09:19:01.126Z,-2.50
2024-01-20T09:21:28.051Z,-2.47
2024-01-20T09:23:54.609Z,-2.43
2024-01-20T09:26:21.317Z,-2.10
2024-01-20T09:28:47.997Z,-2.17
2024-01-20T09:31:14.604Z,-2.17
2024-01-20T09:33:41.598Z,-2.17
2024-01-20T09:36:08.353Z,-2.13
2024-01-20T09:38:35.096Z,-1.88
2024-01-20T09:41:01.816Z,-1.87
2024-01-20T09:43:30.180Z,-1.93
2024-01-20T09:45:58.046Z,-1.66
2024-01-20T09:48:25.232Z,-1.71
2024-01-20T09:50:51.924Z,-1.61
2024-01-20T09:53:18.822Z,-1.23
2024-01-20T09:55:47.015Z,-1.07
2024-01-20T09:58:15.303Z,-1.06
2024-01-20T10:00:42.737Z,-0.95
2024-01-20T10:03:11.158Z,-0.97
2024-01-20T10:05:40.920Z,-1.01
2024-01-20T10:08:10.662Z,-0.83
2024-01-20T10:10:37.287Z,-0.96
2024-01-20T10:13:04.234Z,-0.67
2024-01-20T10:15:34.035Z,-0.75
2024-01-20T10:18:07.841Z,-0.67
2024-01-20T10:20:34.646Z,-0.53
2024-01-20T10:23:03.220Z,-0.36
2024-01-20T10:25:30.110Z,-0.55
2024-01-20T10:27:56.771Z,-0.53
2024-01-20T10:30:27.501Z,-0.41
2024-01-20T10:33:08.322Z,-0.54
2024-01-20T10:35:37.391Z,-0.49
2024-01-20T10:38:10.960Z,-0.36
2024-01-20T10:40:40.710Z,-0.33
2024-01-20T10:43:18.694Z,-0.36
2024-01-20T10:46:24.331Z,-0.11
2024-01-20T10:49:00.670Z,-0.19
2024-01-20T10:51:31.160Z,-0.10
2024-01-20T10:53:58.157Z,-0.18
2024-01-20T10:56:24.991Z,-0.22
2024-01-20T10:59:17.943Z,-0.09
2024-01-20T11:01:46.170Z,-0.00
2024-01-20T11:04:19.002Z,0.05
2024-01-20T11:06:45.843Z,0.19
2024-01-20T11:09:20.720Z,0.16
2024-01-20T11:12:01.892Z,0.36
2024-01-20T11:14:31.735Z,0.34
2024-01-20T11:16:58.911Z,0.22
2024-01-20T11:19:29.457Z,0.31
2024-01-20T11:21:56.103Z,0.59
2024-01-20T11:24:40.199Z,0.79
2024-01-20T11:27:06.869Z,0.81
2024-01-20T11:29:33.566Z,1.06
2024-01-20T11:32:00.736Z,1.19
2024-01-20T11:34:27.418Z,1.11
2024-01-20T11:36:54.132Z,1.19
2024-01-20T11:39:22.682Z,1.51
2024-01-20T11:41:59.915Z,1.76
2024-01-20T11:44:26.669Z,1.69
2024-01-20T11:46:53.367Z,1.38
2024-01-20T11:49:20.072Z,1.37
2024-01-20T11:51:46.839Z,1.56
2024-01-20T11:54:13.537Z,1.51
2024-01-20T11:56:40.140Z,1.61
2024-01-20T11:59:06.760Z,1.41
2024-01-20T12:01:33.645Z,1.37
2024-01-20T12:04:00.329Z,1.43
2024-01-20T12:06:27.668Z,1.61
2024-01-20T12:08:57.242Z,1.61
2024-01-20T12:11:24.692Z,1.68
2024-01-20T12:13:51.449Z,1.69
2024-01-20T12:16:18.641Z,1.39
2024-01-20T12:18:45.674Z,1.91
2024-01-20T12:21:12.518Z,1.73
2024-01-20T12:23:39.232Z,1.68
2024-01-20T12:26:15.488Z,1.94
2024-01-20T12:28:42.344Z,1.71
2024-01-20T12:31:11.361Z,1.27
2024-01-20T12:33:39.022Z,1.74
2024-01-20T12:36:05.972Z,1.97
2024-01-20T12:38:32.631Z,1.63
2024-01-20T12:40:59.259Z,1.22
2024-01-20T12:43:25.923Z,1.39
2024-01-20T12:45:52.553Z,1.74
2024-01-20T12:48:19.300Z,1.84
2024-01-20T12:50:46.034Z,1.89
2024-01-20T12:53:12.982Z,1.75
2024-01-20T12:55:39.633Z,1.55
2024-01-20T12:58:06.304Z,1.55
2024-01-20T13:00:32.993Z,1.60
2024-01-20T13:02:59.839Z,1.94
2024-01-20T13:05:26.687Z,1.58
2024-01-20T13:07:53.403Z,1.74
2024-01-20T13:10:20.047Z,1.81
2024-01-20T13:12:46.863Z,1.42
2024-01-20T13:15:13.562Z,1.63
2024-01-20T13:17:40.298Z,1.70
2024-01-20T13:20:10.390Z,1.66
2024-01-20T13:22:37.399Z,1.93
2024-01-20T13:25:04.345Z,1.40
2024-01-20T13:27:31.124Z,1.64
2024-01-20T13:29:57.806Z,1.68
2024-01-20T13:32:24.537Z,1.51
2024-01-20T13:34:51.148Z,1.97
2024-01-20T13:37:18.074Z,2.00
2024-01-20T13:39:44.742Z,1.70
2024-01-20T13:42:12.610Z,1.41
2024-01-20T13:44:39.250Z,1.04
2024-01-20T13:47:05.982Z,1.19
2024-01-20T13:49:32.822Z,1.44
2024-01-20T13:51:59.529Z,1.10
2024-01-20T13:54:26.171Z,1.44
2024-01-20T13:56:52.798Z,1.58
2024-01-20T13:59:19.513Z,1.21
2024-01-20T14:01:46.216Z,1.11
2024-01-20T14:04:12.908Z,1.13
2024-01-20T14:06:40.277Z,1.04
2024-01-20T14:09:06.947Z,1.10
2024-01-20T14:11:33.569Z,1.19
2024-01-20T14:14:00.327Z,1.37
2024-01-20T14:16:26.976Z,1.04
2024-01-20T14:18:53.790Z,0.68
2024-01-20T14:21:20.536Z,0.52
2024-01-20T14:23:47.105Z,0.39
2024-01-20T14:26:13.723Z,0.33
2024-01-20T14:28:40.311Z,0.14
2024-01-20T14:31:07.064Z,0.05
2024-01-20T14:33:33.787Z,0.04
2024-01-20T14:36:00.752Z,-0.05
2024-01-20T14:38:27.370Z,-0.06
2024-01-20T14:40:54.006Z,-0.36
2024-01-20T14:43:20.600Z,-0.29
2024-01-20T14:45:49.318Z,-0.18
2024-01-20T14:48:16.094Z,-0.29
2024-01-20T14:50:42.841Z,-0.51
2024-01-20T14:53:09.482Z,-0.44
2024-01-20T14:55:36.115Z,-0.39
2024-01-20T14:58:03.122Z,-0.56
2024-01-20T15:00:29.750Z,-0.65
2024-01-20T15:02:56.347Z,-0.84
2024-01-20T15:05:23.031Z,-0.99
2024-01-20T15:07:49.651Z,-1.02
2024-01-20T15:10:16.294Z,-0.95
2024-01-20T15:12:43.010Z,-0.86
2024-01-20T15:15:10.083Z,-1.02
2024-01-20T15:17:36.762Z,-1.14
2024-01-20T15:20:03.656Z,-1.13
2024-01-20T15:22:30.347Z,-1.06
2024-01-20T15:24:57.094Z,-0.95
2024-01-20T15:27:23.927Z,-1.07
2024-01-20T15:29:50.607Z,-1.06
2024-01-20T15:32:17.216Z,-1.18
2024-01-20T15:34:44.088Z,-1.24
2024-01-20T15:37:10.721Z,-1.09
2024-01-20T15:39:37.441Z,-1.24
2024-01-20T15:42:04.320Z,-1.10
2024-01-20T15:44:31.032Z,-1.19
2024-01-20T15:46:57.678Z,-1.30
2024-01-20T15:49:24.609Z,-0.97
2024-01-20T15:51:51.489Z,-1.14
2024-01-20T15:54:18.389Z,-1.08
2024-01-20T15:56:45.170Z,-1.03
2024-01-20T15:59:11.901Z,-0.76
2024-01-20T16:01:38.622Z,-0.60
2024-01-20T16:04:05.336Z,-0.29
2024-01-20T16:06:32.227Z,-0.32
2024-01-20T16:08:58.903Z,-0.20
2024-01-20T16:11:25.605Z,0.02
2024-01-20T16:13:52.256Z,0.07
2024-01-20T16:16:18.927Z,-0.05
2024-01-20T16:18:45.678Z,-0.95
2024-01-20T16:21:12.367Z,-1.33
2024-01-20T16:23:38.990Z,-1.35
2024-01-20T16:26:05.620Z,-1.27
2024-01-20T16:28:33.529Z,-1.47
2024-01-20T16:31:00.568Z,-1.87
2024-01-20T16:33:27.401Z,-1.94
2024-01-20T16:35:54.123Z,-2.13
2024-01-20T16:38:20.791Z,-2.11
2024-01-20T16:40:47.400Z,-2.21
2024-01-20T16:43:14.102Z,-2.10
2024-01-20T16:45:40.893Z,-2.23
2024-01-20T16:48:07.788Z,-2.17
2024-01-20T16:50:35.930Z,-2.04
2024-01-20T16:53:02.603Z,-2.13
2024-01-20T16:55:29.291Z,-2.29
2024-01-20T16:57:55.892Z,-2.26
2024-01-20T17:00:22.745Z,-2.18
2024-01-20T17:02:49.456Z,-2.37
2024-01-20T17:05:16.108Z,-2.22
2024-01-20T17:07:44.413Z,-2.15
2024-01-20T17:10:12.473Z,-2.20
2024-01-20T17:12:39.098Z,-2.29
2024-01-20T17:15:06.286Z,-2.32
2024-01-20T17:17:32.931Z,-2.39
2024-01-20T17:19:59.565Z,-2.18
2024-01-20T17:22:26.215Z,-2.29
2024-01-20T17:24:55.303Z,-2.39
2024-01-20T17:27:21.904Z,-2.29
2024-01-20T17:29:48.928Z,-2.34
2024-01-20T17:32:15.654Z,-2.46
2024-01-20T17:34:42.467Z,-2.50
2024-01-20T17:37:09.243Z,-2.66
2024-01-20T17:39:35.856Z,-2.53
2024-01-20T17:42:02.651Z,-2.63
2024-01-20T17:44:29.295Z,-2.65
2024-01-20T17:46:55.927Z,-2.68
2024-01-20T17:49:23.049Z,-2.70
2024-01-20T17:51:52.654Z,-2.62
2024-01-20T17:54:19.344Z,-2.55
2024-01-20T17:56:46.051Z,-2.62
2024-01-20T17:59:12.742Z,-2.43
2024-01-20T18:01:39.475Z,-2.50
2024-01-20T18:04:06.208Z,-2.46
2024-01-20T18:06:33.195Z,-2.35
2024-01-20T18:09:00.000Z,-2.38
2024-01-20T18:11:26.650Z,-2.52
2024-01-20T18:13:53.334Z,-2.37
2024-01-20T18:16:19.956Z,-2.49
2024-01-20T18:18:46.712Z,-2.48
2024-01-20T18:21:13.475Z,-2.47
2024-01-20T18:23:40.175Z,-2.16
2024-01-20T18:26:06.856Z,-2.39
2024-01-20T18:28:33.467Z,-2.54
2024-01-20T18:31:00.136Z,-2.35
2024-01-20T18:33:26.931Z,-2.06
2024-01-20T18:35:53.576Z,-2.19
2024-01-20T18:38:20.220Z,-2.09
2024-01-20T18:40:46.878Z,-1.82
2024-01-20T18:43:13.517Z,-2.06
2024-01-20T18:45:40.400Z,-2.21
2024-01-20T18:48:07.422Z,-2.04
2024-01-20T18:50:34.113Z,-2.49
2024-01-20T18:53:00.724Z,-2.44
2024-01-20T18:55:27.391Z,-2.55
2024-01-20T18:57:54.096Z,-2.65
2024-01-20T19:00:20.835Z,-2.58
2024-01-20T19:02:48.646Z,-2.54
2024-01-20T19:05:15.287Z,-2.77
2024-01-20T19:07:42.010Z,-2.73
2024-01-20T19:10:08.748Z,-2.90
2024-01-20T19:12:35.500Z,-2.75
2024-01-20T19:15:03.507Z,-2.51
2024-01-20T19:17:31.292Z,-2.18
2024-01-20T19:19:58.007Z,-2.72
2024-01-20T19:22:24.760Z,-2.33
2024-01-20T19:24:51.636Z,-2.37
2024-01-20T19:27:18.429Z,-2.49
2024-01-20T19:29:45.093Z,-2.70
2024-01-20T19:32:11.758Z,-2.57
2024-01-20T19:34:38.622Z,-2.68
2024-01-20T19:37:05.366Z,-2.50
2024-01-20T19:39:32.138Z,-2.50
2024-01-20T19:41:58.794Z,-2.59
2024-01-20T19:44:25.413Z,-2.88
2024-01-20T19:46:52.159Z,-2.89
2024-01-20T19:49:18.920Z,-2.77
2024-01-20T19:51:45.688Z,-2.66
2024-01-20T19:54:12.601Z,-2.45
2024-01-20T19:56:43.410Z,-2.49
2024-01-20T19:59:10.626Z,-2.29
2024-01-20T20:01:48.983Z,-2.20
2024-01-20T20:04:16.901Z,-2.15
2024-01-20T20:06:47.865Z,-2.12
2024-01-20T20:09:16.257Z,-2.00
2024-01-20T20:11:42.999Z,-2.00
2024-01-20T20:14:10.790Z,-1.97
2024-01-20T20:16:37.620Z,-1.82
2024-01-20T20:19:04.779Z,-1.73
2024-01-20T20:21:31.481Z,-2.27
2024-01-20T20:23:58.150Z,-2.28
2024-01-20T20:26:24.785Z,-2.49
2024-01-20T20:28:51.488Z,-3.08
2024-01-20T20:31:19.102Z,-3.23
2024-01-20T20:33:46.678Z,-3.32
2024-01-20T20:36:13.658Z,-3.18
2024-01-20T20:38:40.875Z,-3.10
2024-01-20T20:41:07.497Z,-2.91
2024-01-20T20:43:34.446Z,-2.89
2024-01-20T20:46:01.637Z,-2.87
2024-01-20T20:48:28.221Z,-2.90
2024-01-20T20:50:55.042Z,-2.82
2024-01-20T20:53:21.669Z,-2.76
2024-01-20T20:55:48.321Z,-2.18
2024-01-20T20:58:14.973Z,-1.90
2024-01-20T21:00:41.674Z,-1.98
2024-01-20T21:03:08.429Z,-2.42
2024-01-20T21:05:35.345Z,-2.83
2024-01-20T21:08:01.972Z,-2.99
2024-01-20T21:10:28.579Z,-2.92
2024-01-20T21:12:55.268Z,-3.29
2024-01-20T21:15:22.059Z,-2.95
2024-01-20T21:17:48.833Z,-3.22
2024-01-20T21:20:15.671Z,-3.24
2024-01-20T21:22:42.346Z,-3.16
2024-01-20T21:25:09.092Z,-2.99
2024-01-20T21:27:35.911Z,-2.79
2024-01-20T21:30:04.022Z,-2.76
2024-01-20T21:32:30.684Z,-2.91
2024-01-20T21:34:57.516Z,-2.92
2024-01-20T21:37:24.206Z,-2.63
2024-01-20T21:39:50.921Z,-2.53
2024-01-20T21:42:17.716Z,-2.48
2024-01-20T21:44:44.452Z,-2.14
2024-01-20T21:47:11.085Z,-2.62
2024-01-20T21:49:37.711Z,-2.20
2024-01-20T21:52:04.390Z,-2.01
2024-01-20T21:54:31.178Z,-1.79
2024-01-20T21:56:57.832Z,-2.05
2024-01-20T21:59:24.676Z,-2.14
2024-01-20T22:01:51.884Z,-2.17
2024-01-20T22:04:18.627Z,-3.01
2024-01-20T22:06:45.280Z,-3.13
2024-01-20T22:09:12.098Z,-3.11
2024-01-20T22:11:38.714Z,-2.70
2024-01-20T22:14:05.393Z,-2.75
2024-01-20T22:16:32.058Z,-2.93
2024-01-20T22:18:58.770Z,-2.82
2024-01-20T22:21:25.414Z,-2.67
2024-01-20T22:23:52.070Z,-2.39
2024-01-20T22:26:19.742Z,-2.51
2024-01-20T22:28:46.903Z,-2.23
2024-01-20T22:31:13.771Z,-2.03
2024-01-20T22:33:40.799Z,-2.18
2024-01-20T22:36:07.869Z,-2.37
2024-01-20T22:38:35.051Z,-2.37
2024-01-20T22:41:01.650Z,-2.31
2024-01-20T22:43:28.266Z,-2.19
2024-01-20T22:45:54.954Z,-2.13
2024-01-20T22:48:21.678Z,-2.54
2024-01-20T22:50:48.311Z,-3.24
2024-01-20T22:53:14.927Z,-3.85
2024-01-20T22:55:41.664Z,-4.23
2024-01-20T22:58:08.259Z,-4.59
2024-01-20T23:00:34.913Z,-4.63
2024-01-20T23:03:01.682Z,-4.35
2024-01-20T23:05:28.379Z,-4.58
2024-01-20T23:07:55.003Z,-4.56
2024-01-20T23:10:21.697Z,-4.76
2024-01-20T23:12:48.353Z,-4.82
2024-01-20T23:15:15.116Z,-4.79
2024-01-20T23:17:42.023Z,-4.66
2024-01-20T23:20:09.076Z,-4.59
2024-01-20T23:22:35.825Z,-4.65
2024-01-20T23:25:02.513Z,-4.40
2024-01-20T23:27:29.182Z,-4.41
2024-01-20T23:29:55.860Z,-4.28
2024-01-20T23:32:22.499Z,-4.51
2024-01-20T23:34:49.090Z,-4.29
2024-01-20T23:37:15.722Z,-4.33
2024-01-20T23:39:42.377Z,-4.19
2024-01-20T23:42:09.127Z,-4.20
2024-01-20T23:44:35.853Z,-4.16
2024-01-20T23:47:02.482Z,-4.06
2024-01-20T23:49:29.293Z,-4.02
2024-01-20T23:51:57.812Z,-3.85
2024-01-20T23:54:24.578Z,-3.89
2024-01-20T23:56:51.797Z,-3.81
2024-01-20T23:59:18.407Z,-3.79
